Time;durP1;ratioP1;P1;durP2;ratioP2;P2;SDS_P1;SDS_P2;PMS_P1;PMS_P2;Temp;Humidity;BMP_temperature;BMP_pressure;BME280_temperature;BME280_humidity;BME280_pressure;Samples;Min_cycle;Max_cycle;Signal;HPM_P1;HPM_P2
2022/02/10 00:14:54;;;;;;;14.60;9.80;;;;;;;5.66;100.00;99676.56;104970;1273;60595;-71
2022/02/10 00:17:48;;;;;;;14.30;10.10;;;;;;;5.66;100.00;99675.85;104943;1273;62072;-72
2022/02/10 00:20:26;;;;;;;17.00;11.30;;;;;;;5.65;100.00;99668.81;104982;1273;74410;-72
2022/02/10 00:34:13;;;;;;;23.50;13.70;;;;;;;5.62;100.00;99677.04;104968;1273;74541;-71
2022/02/10 00:36:45;;;;;;;16.60;12.10;;;;;;;5.62;100.00;99678.98;104937;1272;69812;-72
2022/02/10 00:40:06;;;;;;;17.80;11.50;;;;;;;5.62;100.00;99673.85;104964;1273;73437;-72
2022/02/10 00:42:02;;;;;;;16.30;11.00;;;;;;;5.62;100.00;99679.50;104897;1273;61015;-72
2022/02/10 00:44:28;;;;;;;17.00;10.60;;;;;;;5.62;100.00;99679.89;104956;1273;61909;-72
2022/02/10 00:46:55;;;;;;;16.80;11.40;;;;;;;5.61;100.00;99677.42;104957;1273;74910;-72
2022/02/10 00:49:22;;;;;;;15.30;10.30;;;;;;;5.61;100.00;99677.42;104975;1273;70672;-72
2022/02/10 00:51:49;;;;;;;15.20;11.20;;;;;;;5.62;100.00;99676.16;104954;1273;74562;-72
2022/02/10 00:54:23;;;;;;;15.80;11.20;;;;;;;5.62;100.00;99678.09;104955;1273;60358;-72
2022/02/10 00:56:51;;;;;;;16.40;11.70;;;;;;;5.63;100.00;99677.89;105007;1273;61034;-71
2022/02/10 00:59:40;;;;;;;16.40;11.20;;;;;;;5.63;100.00;99675.08;105025;1273;75308;-71
2022/02/10 01:32:16;;;;;;;12.20;9.20;;;;;;;5.61;100.00;99656.45;104480;1279;73511;-73
2022/02/10 01:34:51;;;;;;;13.90;9.60;;;;;;;5.62;100.00;99654.48;104470;1279;60689;-73
2022/02/10 01:37:19;;;;;;;11.80;9.40;;;;;;;5.63;100.00;99653.58;104494;1279;60862;-73
2022/02/10 01:39:51;;;;;;;12.50;10.10;;;;;;;5.62;100.00;99648.48;104438;1279;74939;-71
2022/02/10 02:04:21;;;;;;;9.00;8.00;;;;;;;5.63;100.00;99622.69;104597;1279;60801;-72
2022/02/10 02:06:51;;;;;;;10.70;8.80;;;;;;;5.64;100.00;99622.88;104503;1278;74630;-72
2022/02/10 02:09:20;;;;;;;10.40;9.00;;;;;;;5.63;100.00;99621.47;104888;1273;69394;-72
2022/02/10 02:11:51;;;;;;;13.00;9.10;;;;;;;5.63;100.00;99617.59;105032;1273;73468;-72
2022/02/10 02:14:21;;;;;;;10.30;8.60;;;;;;;5.63;100.00;99615.83;104941;1273;60593;-72
2022/02/10 02:16:49;;;;;;;10.60;8.50;;;;;;;5.63;100.00;99618.65;104889;1273;60757;-72
2022/02/10 02:19:16;;;;;;;9.50;8.30;;;;;;;5.64;100.00;99618.25;104951;1272;75283;-71
2022/02/10 02:21:44;;;;;;;8.90;8.00;;;;;;;5.65;100.00;99616.67;104935;1273;69176;-71
2022/02/10 02:24:15;;;;;;;8.70;7.40;;;;;;;5.65;100.00;99620.70;105010;1273;73413;-72
2022/02/10 02:26:42;;;;;;;12.20;8.90;;;;;;;5.65;100.00;99619.97;105003;1273;60492;-72
2022/02/10 02:29:11;;;;;;;10.00;8.50;;;;;;;5.65;100.00;99616.27;104975;1273;61924;-72
2022/02/10 02:31:44;;;;;;;9.50;8.00;;;;;;;5.66;100.00;99622.78;104948;1273;75252;-72
2022/02/10 03:07:01;;;;;;;9.40;7.80;;;;;;;5.66;100.00;99604.27;104993;1273;60606;-72
2022/02/10 03:09:28;;;;;;;9.90;8.10;;;;;;;5.65;100.00;99606.58;104879;1273;60378;-72
2022/02/10 03:11:57;;;;;;;8.40;7.40;;;;;;;5.65;100.00;99600.24;104967;1273;74623;-70
2022/02/10 03:14:32;;;;;;;9.50;7.70;;;;;;;5.65;100.00;99599.04;104966;1273;69369;-72
2022/02/10 04:15:53;;;;;;;6.20;5.60;;;;;;;5.66;100.00;99584.33;105053;1273;60747;-72
2022/02/10 04:20:57;;;;;;;8.20;6.50;;;;;;;5.67;100.00;99583.09;105001;1273;70246;-71
2022/02/10 04:28:45;;;;;;;8.40;7.10;;;;;;;5.72;100.00;99578.68;104984;1273;60424;-73
2022/02/10 05:01:19;;;;;;;12.30;7.10;;;;;;;5.77;100.00;99570.55;104975;1273;70620;-73
2022/02/10 05:17:39;;;;;;;10.90;6.80;;;;;;;5.75;100.00;99569.76;105009;1273;74686;-72
2022/02/10 05:23:15;;;;;;;8.40;7.20;;;;;;;5.73;100.00;99568.39;104857;1273;61894;-72
2022/02/10 05:33:57;;;;;;;9.60;7.60;;;;;;;5.70;100.00;99565.67;104865;1273;60514;-72
2022/02/10 05:36:28;;;;;;;9.70;8.40;;;;;;;5.69;100.00;99569.08;104942;1273;62035;-72
2022/02/10 05:39:08;;;;;;;11.40;7.80;;;;;;;5.68;100.00;99563.11;104869;1276;74319;-72
2022/02/10 05:44:24;;;;;;;21.40;12.30;;;;;;;5.67;100.00;99568.59;104955;1273;60441;-72
2022/02/10 05:47:36;;;;;;;13.30;9.40;;;;;;;5.68;100.00;99566.83;104971;1273;60597;-72
2022/02/10 06:00:36;;;;;;;9.90;7.40;;;;;;;5.71;100.00;99577.29;104970;1273;60567;-72
2022/02/10 06:50:23;;;;;;;12.50;9.10;;;;;;;5.89;100.00;99553.52;104986;1273;69915;-77
2022/02/10 06:52:30;;;;;;;14.20;9.70;;;;;;;5.91;100.00;99550.80;104925;1273;73282;-74
2022/02/10 07:54:18;;;;;;;43.20;26.20;;;;;;;6.59;100.00;99542.76;104981;1273;74455;-72
2022/02/10 07:57:02;;;;;;;38.30;24.30;;;;;;;6.65;100.00;99543.58;105006;1273;69231;-73
2022/02/10 08:57:03;;;;;;;19.40;12.80;;;;;;;8.13;97.38;99486.44;105037;1273;60482;-74
2022/02/10 10:04:18;;;;;;;13.10;6.20;;;;;;;9.61;91.06;99459.10;105019;1273;60781;-76
2022/02/10 10:09:59;;;;;;;6.80;6.00;;;;;;;9.65;90.61;99454.08;104515;1277;74493;-76
2022/02/10 10:12:55;;;;;;;8.00;6.40;;;;;;;9.66;90.29;99454.20;104502;1277;70472;-72
2022/02/10 10:57:27;;;;;;;7.80;6.60;;;;;;;9.68;88.82;99367.87;104908;1273;73127;-75
2022/02/10 11:45:11;;;;;;;8.50;6.90;;;;;;;11.30;86.44;99264.53;105035;1273;61887;-75
2022/02/10 12:32:12;;;;;;;4.40;4.00;;;;;;;10.89;84.68;99182.38;104981;1273;74890;-73
2022/02/10 12:37:07;;;;;;;4.40;3.90;;;;;;;10.88;84.33;99170.91;104766;1273;75067;-72
2022/02/10 14:18:03;;;;;;;4.90;3.70;;;;;;;10.81;82.58;99107.02;105059;1273;60571;-73
2022/02/10 14:26:02;;;;;;;4.30;3.80;;;;;;;10.71;83.07;99094.13;104715;1273;70577;-74
2022/02/10 14:28:31;;;;;;;4.30;3.60;;;;;;;10.67;83.57;99089.83;105021;1273;74223;-74
2022/02/10 14:31:04;;;;;;;4.70;4.00;;;;;;;10.63;83.20;99092.55;105111;1274;60523;-74
2022/02/10 14:33:36;;;;;;;4.60;3.90;;;;;;;10.60;83.35;99087.48;105129;1271;62058;-73
2022/02/10 16:18:45;;;;;;;25.10;17.10;;;;;;;7.88;90.39;99009.35;105045;1271;60535;-73
2022/02/10 16:21:13;;;;;;;25.00;15.70;;;;;;;7.84;90.48;99010.25;104934;1271;61284;-72
2022/02/10 16:23:41;;;;;;;29.90;17.90;;;;;;;7.82;90.55;99002.80;105091;1271;74621;-74
2022/02/10 16:26:10;;;;;;;30.80;21.10;;;;;;;7.79;90.69;98999.04;105014;1271;70190;-73
2022/02/10 16:28:40;;;;;;;39.10;24.50;;;;;;;7.75;90.87;99000.49;105014;1271;73155;-72
2022/02/10 16:31:10;;;;;;;44.80;27.40;;;;;;;7.70;90.93;99002.17;105105;1271;60471;-73
2022/02/10 16:33:41;;;;;;;40.80;24.70;;;;;;;7.64;91.06;98996.48;105118;1271;60746;-74
2022/02/10 16:36:16;;;;;;;34.90;21.30;;;;;;;7.59;91.11;98992.53;105075;1270;75200;-74
2022/02/10 16:38:44;;;;;;;35.20;19.50;;;;;;;7.54;91.26;98987.52;105178;1271;69830;-73
2022/02/10 16:41:14;;;;;;;29.90;18.90;;;;;;;7.49;91.40;98981.27;105019;1271;74387;-74
2022/02/10 16:43:42;;;;;;;31.20;19.80;;;;;;;7.44;91.45;98980.99;105005;1271;60473;-73
2022/02/10 16:46:09;;;;;;;31.20;18.70;;;;;;;7.39;91.60;98982.30;105157;1271;61875;-73
2022/02/10 16:48:37;;;;;;;28.90;19.00;;;;;;;7.34;91.60;98978.50;105056;1271;75539;-72
2022/02/10 16:51:09;;;;;;;35.40;19.20;;;;;;;7.30;91.79;98977.55;105085;1271;69361;-74
2022/02/10 16:53:46;;;;;;;36.90;19.80;;;;;;;7.24;91.87;98968.95;105056;1271;73586;-75
2022/02/10 16:56:19;;;;;;;31.10;18.50;;;;;;;7.19;91.96;98959.36;105075;1271;60506;-73
2022/02/10 16:58:58;;;;;;;30.40;18.70;;;;;;;7.13;92.16;98950.65;105127;1271;61067;-74
2022/02/10 17:29:07;;;;;;;32.30;19.60;;;;;;;7.03;93.04;98973.64;104497;1279;74374;-73
2022/02/10 17:31:43;;;;;;;30.80;20.00;;;;;;;7.04;93.12;98975.52;104527;1279;68721;-73
2022/02/10 17:37:02;;;;;;;36.90;24.30;;;;;;;7.05;93.06;98991.91;104558;1279;60707;-73
2022/02/10 17:53:37;;;;;;;29.70;18.00;;;;;;;7.01;93.00;99023.58;104985;1271;61272;-74
2022/02/10 17:56:09;;;;;;;30.60;19.40;;;;;;;6.98;93.10;99029.55;105060;1271;74837;-73
2022/02/10 17:58:36;;;;;;;29.30;19.00;;;;;;;6.95;93.22;99029.89;105101;1271;69829;-73
2022/02/10 18:01:05;;;;;;;26.40;17.20;;;;;;;6.93;93.28;99027.87;105073;1271;73232;-73
2022/02/10 18:03:32;;;;;;;22.80;14.00;;;;;;;6.90;93.32;99032.41;104988;1273;60656;-73
2022/02/10 18:08:47;;;;;;;18.50;13.30;;;;;;;6.91;93.48;99035.56;104938;1272;74732;-73
2022/02/10 18:13:55;;;;;;;20.20;13.80;;;;;;;6.90;93.51;99035.26;105025;1271;73738;-73
2022/02/10 18:19:21;;;;;;;20.10;13.50;;;;;;;6.86;93.75;99045.37;104771;1271;62008;-75
2022/02/10 18:22:09;;;;;;;24.10;14.70;;;;;;;6.84;93.75;99036.14;105040;1271;74906;-72
2022/02/10 19:01:37;;;;;;;21.40;14.20;;;;;;;6.71;94.70;99029.01;104962;1273;73135;-74
2022/02/10 19:04:07;;;;;;;24.40;13.90;;;;;;;6.93;94.64;99013.17;105064;1271;75758;-73
2022/02/10 19:11:15;;;;;;;30.70;17.30;;;;;;;7.10;94.33;99003.82;105048;1271;60529;-73
2022/02/10 19:13:43;;;;;;;31.30;16.80;;;;;;;7.14;94.22;99010.33;105068;1271;60551;-73
2022/02/10 19:16:10;;;;;;;33.30;17.90;;;;;;;7.18;94.19;99012.96;105069;1271;74564;-73
2022/02/10 19:18:36;;;;;;;27.40;15.30;;;;;;;7.21;94.05;99015.64;105049;1271;69944;-73
2022/02/10 19:21:03;;;;;;;35.10;17.40;;;;;;;7.24;93.93;99017.38;105040;1271;74595;-73
2022/02/10 19:23:30;;;;;;;31.20;17.50;;;;;;;7.28;93.84;99014.70;105063;1271;60485;-75
2022/02/10 19:25:57;;;;;;;24.90;15.10;;;;;;;7.33;93.68;99007.41;104936;1271;61324;-73
2022/02/10 19:28:24;;;;;;;22.30;14.20;;;;;;;7.37;93.47;99009.29;105043;1271;75620;-71
2022/02/10 19:30:51;;;;;;;19.70;12.60;;;;;;;7.41;93.22;99007.14;105043;1271;69925;-73
2022/02/10 19:33:19;;;;;;;22.50;13.20;;;;;;;7.44;93.24;99010.48;104987;1271;73644;-73
2022/02/10 19:35:49;;;;;;;22.00;13.90;;;;;;;7.46;93.12;99006.00;105074;1271;60495;-74
2022/02/10 19:38:20;;;;;;;20.70;14.00;;;;;;;7.46;93.18;99011.95;104927;1271;60475;-72
2022/02/10 19:40:53;;;;;;;23.70;14.00;;;;;;;7.47;93.24;99018.65;104836;1273;73779;-73
2022/02/10 19:43:22;;;;;;;20.10;12.80;;;;;;;7.46;93.02;99020.80;105346;1271;66639;-74
2022/02/10 19:45:49;;;;;;;18.90;12.10;;;;;;;7.49;92.96;99030.77;105105;1271;74061;-72
2022/02/10 19:48:17;;;;;;;21.10;11.80;;;;;;;7.49;93.04;99027.56;105053;1271;60600;-74
2022/02/10 19:50:44;;;;;;;19.10;11.30;;;;;;;7.49;92.86;99028.99;105112;1271;60478;-75
2022/02/10 19:53:13;;;;;;;19.80;12.20;;;;;;;7.50;92.83;99034.22;105053;1271;75119;-73
2022/02/10 19:55:44;;;;;;;18.70;11.20;;;;;;;7.51;92.79;99037.35;105045;1271;69992;-74
2022/02/10 19:58:13;;;;;;;18.70;12.00;;;;;;;7.53;92.70;99038.69;105040;1271;74631;-72
2022/02/10 20:00:44;;;;;;;16.70;11.30;;;;;;;7.54;92.49;99038.05;105034;1271;61173;-74
2022/02/10 20:03:15;;;;;;;16.90;10.60;;;;;;;7.56;92.40;99037.29;105040;1271;61222;-74
2022/02/10 20:05:45;;;;;;;16.70;10.90;;;;;;;7.59;92.39;99044.91;104988;1271;76451;-75
2022/02/10 20:08:16;;;;;;;17.40;11.20;;;;;;;7.60;92.34;99047.81;105158;1271;66879;-72
2022/02/10 20:10:44;;;;;;;14.30;10.60;;;;;;;7.61;92.21;99050.27;104954;1271;74445;-74
2022/02/10 20:13:16;;;;;;;12.10;9.50;;;;;;;7.63;92.13;99051.20;105020;1271;61163;-75
2022/02/10 20:15:45;;;;;;;16.80;11.40;;;;;;;7.66;92.03;99051.05;105021;1271;61333;-72
2022/02/10 20:18:16;;;;;;;15.70;11.10;;;;;;;7.67;91.88;99041.82;104687;1273;73854;-73
2022/02/10 20:20:46;;;;;;;18.70;11.90;;;;;;;7.69;91.70;99047.54;105063;1270;69137;-73
2022/02/10 20:23:14;;;;;;;16.20;10.60;;;;;;;7.71;91.57;99047.79;105174;1271;74723;-72
2022/02/10 20:25:41;;;;;;;15.80;10.40;;;;;;;7.75;91.41;99050.92;105155;1271;61270;-73
2022/02/10 20:28:32;;;;;;;15.80;11.30;;;;;;;7.78;91.41;99053.39;105024;1271;61221;-75
2022/02/10 20:31:01;;;;;;;14.00;10.00;;;;;;;7.80;91.02;99051.52;104996;1271;76690;-75
2022/02/10 20:33:30;;;;;;;15.30;10.00;;;;;;;7.83;91.13;99052.94;104928;1271;70320;-74
2022/02/10 20:36:00;;;;;;;14.10;9.80;;;;;;;7.84;91.05;99053.93;104924;1271;74236;-74
2022/02/10 20:38:29;;;;;;;16.00;10.90;;;;;;;7.85;90.84;99051.94;104923;1271;61312;-73
2022/02/10 20:41:05;;;;;;;19.60;10.80;;;;;;;7.86;90.96;99051.17;105114;1271;61227;-73
2022/02/10 20:43:32;;;;;;;18.10;11.20;;;;;;;7.87;90.66;99052.39;105095;1271;75955;-74
2022/02/10 20:46:04;;;;;;;15.10;10.30;;;;;;;7.88;90.50;99050.72;105128;1271;70059;-74
2022/02/10 20:48:34;;;;;;;18.40;11.70;;;;;;;7.89;90.70;99055.06;104978;1271;74164;-74
2022/02/10 20:51:02;;;;;;;15.20;11.00;;;;;;;7.89;90.69;99054.54;105097;1271;61412;-74
2022/02/10 20:53:31;;;;;;;14.90;10.00;;;;;;;7.88;90.77;99056.70;105115;1271;61345;-73
2022/02/10 20:56:03;;;;;;;15.00;10.70;;;;;;;7.88;90.60;99054.08;104985;1271;76304;-74
2022/02/10 20:58:32;;;;;;;14.40;9.80;;;;;;;7.88;90.72;99057.59;105521;1271;69034;-73
2022/02/10 21:01:02;;;;;;;13.80;10.00;;;;;;;7.89;90.57;99055.83;105060;1271;74510;-73
2022/02/10 21:03:32;;;;;;;13.70;9.20;;;;;;;7.90;90.59;99061.43;105106;1271;61273;-73
2022/02/10 21:11:01;;;;;;;13.20;9.00;;;;;;;7.93;90.48;99057.91;104864;1273;68743;-74
2022/02/10 21:13:31;;;;;;;15.50;9.80;;;;;;;7.92;90.47;99053.52;105080;1271;73706;-73
2022/02/10 21:15:59;;;;;;;16.60;9.50;;;;;;;7.91;90.58;99051.30;105087;1271;61157;-74
2022/02/10 21:18:28;;;;;;;16.10;10.40;;;;;;;7.90;90.59;99049.40;105139;1271;61389;-74
2022/02/10 21:21:05;;;;;;;15.80;10.70;;;;;;;7.89;90.68;99049.80;104998;1271;75475;-74
2022/02/10 21:26:54;;;;;;;15.40;9.80;;;;;;;7.88;90.66;99042.08;104762;1280;73557;-73
2022/02/10 21:29:22;;;;;;;18.40;11.10;;;;;;;7.89;90.68;99038.66;104850;1279;61445;-73
2022/02/10 21:31:50;;;;;;;14.40;10.30;;;;;;;7.89;90.63;99041.68;104770;1280;62250;-74
2022/02/10 21:34:24;;;;;;;15.20;9.60;;;;;;;7.89;90.67;99046.08;104323;1282;75036;-73
2022/02/10 22:09:01;;;;;;;15.60;12.00;;;;;;;7.74;91.48;99071.82;104977;1272;61254;-75
2022/02/10 22:17:41;;;;;;;19.20;13.40;;;;;;;7.68;91.64;99082.08;104949;1273;70226;-74
2022/02/10 22:20:12;;;;;;;19.90;13.40;;;;;;;7.66;91.74;99081.10;104961;1273;73482;-73
2022/02/10 22:22:50;;;;;;;16.90;12.90;;;;;;;7.65;91.80;99084.17;104966;1273;61408;-73
2022/02/10 22:25:16;;;;;;;19.00;12.00;;;;;;;7.64;91.88;99089.73;104986;1273;61238;-74
2022/02/10 22:27:47;;;;;;;19.30;13.80;;;;;;;7.62;91.76;99089.45;104968;1273;75492;-74
2022/02/10 22:30:22;;;;;;;19.70;12.50;;;;;;;7.61;91.77;99095.69;104903;1273;68577;-74
2022/02/10 22:33:19;;;;;;;19.90;12.90;;;;;;;7.60;91.83;99096.10;104999;1273;73147;-74
2022/02/10 22:35:46;;;;;;;16.60;12.90;;;;;;;7.59;91.84;99101.64;105032;1271;61271;-72
2022/02/10 22:38:13;;;;;;;17.40;12.50;;;;;;;7.58;91.89;99102.04;105013;1271;61158;-74
2022/02/10 22:43:06;;;;;;;18.70;12.50;;;;;;;7.56;91.89;99105.71;105035;1271;61237;-72
2022/02/10 22:45:34;;;;;;;19.30;12.90;;;;;;;7.55;91.95;99109.09;105029;1271;73542;-72
2022/02/10 22:48:01;;;;;;;19.90;12.00;;;;;;;7.54;91.84;99109.68;104990;1271;61287;-74
2022/02/10 22:50:27;;;;;;;18.90;12.20;;;;;;;7.54;91.95;99112.52;105008;1273;61283;-73
2022/02/10 22:52:54;;;;;;;20.90;12.50;;;;;;;7.52;91.97;99113.52;104999;1271;76663;-74
2022/02/10 22:55:21;;;;;;;17.10;10.90;;;;;;;7.49;92.11;99116.52;105029;1271;70059;-73
2022/02/10 22:57:49;;;;;;;19.20;12.10;;;;;;;7.48;92.11;99125.88;104996;1271;74431;-74
2022/02/10 23:00:28;;;;;;;17.70;12.00;;;;;;;7.47;92.13;99129.65;104961;1273;61361;-73
2022/02/10 23:02:55;;;;;;;18.90;11.90;;;;;;;7.46;92.21;99129.20;105037;1271;61317;-72
2022/02/10 23:05:23;;;;;;;18.20;11.70;;;;;;;7.44;92.31;99131.95;105052;1271;74910;-73
2022/02/10 23:07:57;;;;;;;17.30;12.40;;;;;;;7.43;92.34;99135.70;105010;1271;70561;-74
2022/02/10 23:10:40;;;;;;;16.80;11.90;;;;;;;7.42;92.45;99134.52;105048;1271;73380;-74
2022/02/10 23:13:07;;;;;;;20.00;13.60;;;;;;;7.41;92.43;99134.73;105009;1271;61246;-73
2022/02/10 23:15:37;;;;;;;19.40;13.40;;;;;;;7.40;92.54;99139.94;104982;1271;61709;-75
2022/02/10 23:18:13;;;;;;;22.00;13.30;;;;;;;7.39;92.58;99136.99;105110;1272;76194;-74
2022/02/10 23:20:40;;;;;;;22.30;14.30;;;;;;;7.37;92.78;99143.11;105246;1271;70316;-73
2022/02/10 23:23:09;;;;;;;24.30;14.70;;;;;;;7.35;92.73;99142.84;105266;1271;74320;-72
2022/02/10 23:25:37;;;;;;;28.30;16.30;;;;;;;7.34;92.80;99143.95;105242;1272;61373;-74
2022/02/10 23:28:09;;;;;;;26.30;16.20;;;;;;;7.32;92.99;99144.95;105285;1272;61899;-73
2022/02/10 23:30:35;;;;;;;21.00;15.10;;;;;;;7.30;92.96;99143.45;105013;1271;74604;-73
2022/02/10 23:33:27;;;;;;;22.10;13.70;;;;;;;7.30;93.07;99145.07;105052;1272;68161;-72
2022/02/10 23:38:50;;;;;;;19.30;12.90;;;;;;;7.29;93.06;99145.96;105049;1272;61332;-73
2022/02/10 23:43:51;;;;;;;16.80;12.10;;;;;;;7.29;93.09;99145.25;104859;1271;73341;-73
2022/02/10 23:46:19;;;;;;;17.70;11.70;;;;;;;7.29;93.21;99144.20;105059;1271;70244;-73
2022/02/10 23:48:46;;;;;;;20.10;12.60;;;;;;;7.30;93.18;99147.67;104703;1273;249821;-74
2022/02/10 23:51:14;;;;;;;18.90;13.00;;;;;;;7.30;93.12;99146.99;105006;1273;61471;-73
2022/02/10 23:53:40;;;;;;;20.70;12.10;;;;;;;7.29;93.31;99147.02;105038;1272;61945;-74
2022/02/10 23:56:11;;;;;;;19.80;12.70;;;;;;;7.27;93.33;99146.06;105040;1271;75232;-72
2022/02/10 23:58:52;;;;;;;18.20;11.60;;;;;;;7.26;93.33;99144.90;105035;1271;70288;-73
